Time;durP1;ratioP1;P1;durP2;ratioP2;P2;SDS_P1;SDS_P2;PMS_P1;PMS_P2;Temp;Humidity;BMP_temperature;BMP_pressure;BME280_temperature;BME280_humidity;BME280_pressure;Samples;Min_cycle;Max_cycle;Signal;HPM_P1;HPM_P2
2023/01/02 00:01:17;;;;;;;9.83;3.77;;;7.60;99.90;;;;;;4995865;28;20213;-85
2023/01/02 00:03:42;;;;;;;8.57;4.20;;;7.60;99.90;;;;;;5013678;28;20593;-84
2023/01/02 00:06:08;;;;;;;5.73;3.90;;;7.60;99.90;;;;;;4995902;28;20295;-84
2023/01/02 00:08:34;;;;;;;8.40;3.93;;;7.60;99.90;;;;;;4996688;28;20238;-84
2023/01/02 00:10:59;;;;;;;7.60;4.27;;;7.60;99.90;;;;;;4980028;28;20208;-85
2023/01/02 00:13:25;;;;;;;9.03;3.63;;;7.60;99.90;;;;;;5013803;28;20653;-85
2023/01/02 00:15:51;;;;;;;5.97;4.30;;;7.50;99.90;;;;;;5014028;28;20219;-84
2023/01/02 00:18:17;;;;;;;6.53;3.90;;;7.50;99.90;;;;;;4996076;28;20447;-85
2023/01/02 00:20:42;;;;;;;4.87;3.23;;;7.50;99.90;;;;;;5013944;28;20208;-84
2023/01/02 00:23:09;;;;;;;4.60;3.33;;;7.50;99.90;;;;;;4996239;28;20211;-85
2023/01/02 00:25:34;;;;;;;8.13;4.00;;;7.40;99.90;;;;;;4996509;28;20181;-84
2023/01/02 00:28:01;;;;;;;7.43;3.30;;;7.40;99.90;;;;;;5013320;28;20173;-85
2023/01/02 00:30:27;;;;;;;15.40;5.07;;;7.40;99.90;;;;;;4996376;28;20231;-84
2023/01/02 00:32:52;;;;;;;11.23;5.50;;;7.40;99.90;;;;;;4992796;28;20232;-86
2023/01/02 00:35:18;;;;;;;8.90;4.23;;;7.30;99.90;;;;;;4976305;28;20633;-85
2023/01/02 00:37:44;;;;;;;19.43;8.67;;;7.20;99.90;;;;;;5004191;28;20186;-84
2023/01/02 00:40:12;;;;;;;12.17;5.50;;;7.20;99.90;;;;;;4993666;28;20253;-85
2023/01/02 00:42:41;;;;;;;8.73;4.40;;;7.10;99.90;;;;;;4994060;28;20730;-84
2023/01/02 00:45:09;;;;;;;10.03;5.77;;;7.10;99.90;;;;;;4993857;28;20669;-85
2023/01/02 00:47:34;;;;;;;22.17;9.53;;;7.00;99.90;;;;;;4993945;28;20178;-84
2023/01/02 00:50:00;;;;;;;20.83;8.50;;;7.00;99.90;;;;;;4994220;28;20634;-84
2023/01/02 00:52:25;;;;;;;6.90;4.23;;;6.90;99.90;;;;;;4976254;28;20193;-84
2023/01/02 00:54:51;;;;;;;6.63;3.63;;;7.00;99.90;;;;;;4977346;28;20182;-84
2023/01/02 00:57:17;;;;;;;7.47;4.47;;;7.00;99.90;;;;;;4993693;28;20182;-84
2023/01/02 00:59:42;;;;;;;4.57;2.73;;;7.00;99.90;;;;;;4976374;28;20209;-85
2023/01/02 01:02:08;;;;;;;7.00;4.67;;;7.00;99.90;;;;;;4976154;28;20210;-85
2023/01/02 01:04:35;;;;;;;4.67;2.70;;;7.00;99.90;;;;;;4976277;28;20308;-84
2023/01/02 01:07:01;;;;;;;7.27;3.30;;;7.00;99.90;;;;;;4976663;28;20236;-84
2023/01/02 01:09:27;;;;;;;3.50;3.00;;;7.00;99.90;;;;;;4976076;28;20560;-84
2023/01/02 01:11:52;;;;;;;10.13;3.37;;;7.00;99.90;;;;;;4960298;28;20204;-84
2023/01/02 01:14:18;;;;;;;11.80;4.70;;;7.00;99.90;;;;;;4993654;28;20178;-84
2023/01/02 01:16:44;;;;;;;5.77;3.20;;;6.90;99.90;;;;;;4976175;28;20178;-84
2023/01/02 01:19:09;;;;;;;4.50;2.73;;;7.00;99.90;;;;;;4976113;28;20237;-84
2023/01/02 01:21:35;;;;;;;3.13;2.80;;;6.90;99.90;;;;;;4993580;28;20513;-84
2023/01/02 01:24:01;;;;;;;6.53;3.83;;;6.90;99.90;;;;;;4976434;28;20178;-84
2023/01/02 01:26:27;;;;;;;5.50;4.10;;;6.90;99.90;;;;;;4996930;28;20170;-84
2023/01/02 01:28:54;;;;;;;4.33;2.40;;;6.90;99.90;;;;;;4997337;28;20220;-84
2023/01/02 01:31:21;;;;;;;5.43;3.20;;;6.90;99.90;;;;;;4997458;28;20173;-84
2023/01/02 01:33:47;;;;;;;4.20;3.27;;;6.80;99.90;;;;;;5006143;28;20177;-84
2023/01/02 01:36:18;;;;;;;8.90;3.70;;;6.80;99.90;;;;;;4996133;28;20212;-85
2023/01/02 01:38:45;;;;;;;8.53;5.20;;;6.80;99.90;;;;;;4997294;28;20170;-84
2023/01/02 01:41:13;;;;;;;10.37;5.33;;;6.70;99.90;;;;;;4979726;28;20170;-84
2023/01/02 01:43:51;;;;;;;14.63;6.00;;;6.60;99.90;;;;;;4996960;28;20174;-84
2023/01/02 01:46:32;;;;;;;14.17;6.07;;;6.50;99.90;;;;;;4996929;28;20603;-84
2023/01/02 01:49:24;;;;;;;15.27;6.23;;;6.50;99.90;;;;;;4996805;28;20201;-84
2023/01/02 01:51:54;;;;;;;15.63;7.57;;;6.40;99.90;;;;;;4997438;28;20206;-84
2023/01/02 01:54:29;;;;;;;9.63;4.73;;;6.40;99.90;;;;;;4996732;28;20174;-84
2023/01/02 01:57:01;;;;;;;9.50;5.63;;;6.40;99.90;;;;;;4997019;28;20220;-84
2023/01/02 01:59:27;;;;;;;9.77;5.33;;;6.30;99.90;;;;;;4996357;28;20154;-84
2023/01/02 02:01:52;;;;;;;15.43;5.90;;;6.30;99.90;;;;;;4979424;28;20201;-84
2023/01/02 02:04:22;;;;;;;11.57;4.83;;;6.30;99.90;;;;;;4996197;28;20229;-85
2023/01/02 02:06:49;;;;;;;5.13;3.10;;;6.30;99.90;;;;;;4996794;28;20177;-84
2023/01/02 02:09:24;;;;;;;5.93;3.30;;;6.30;99.90;;;;;;4996137;28;20635;-85
2023/01/02 02:11:52;;;;;;;4.67;3.37;;;6.30;99.90;;;;;;4996757;28;20165;-84
2023/01/02 02:14:18;;;;;;;5.17;2.10;;;6.40;99.90;;;;;;4996349;28;20679;-84
2023/01/02 02:16:49;;;;;;;7.00;3.33;;;6.40;99.90;;;;;;4979089;28;20229;-84
2023/01/02 02:19:18;;;;;;;12.03;4.90;;;6.40;99.90;;;;;;4978944;28;20237;-84
2023/01/02 02:22:08;;;;;;;3.60;2.80;;;6.40;99.90;;;;;;4996292;28;20218;-84
2023/01/02 02:24:55;;;;;;;4.20;3.50;;;6.40;99.90;;;;;;4995865;28;20170;-84
2023/01/02 02:27:44;;;;;;;4.57;3.53;;;6.40;99.90;;;;;;4991918;28;20173;-84
2023/01/02 02:30:13;;;;;;;3.80;3.23;;;6.40;99.90;;;;;;5014777;28;20180;-84
2023/01/02 02:32:57;;;;;;;5.57;3.27;;;6.30;99.90;;;;;;5012543;28;20653;-85
2023/01/02 02:35:37;;;;;;;3.83;2.63;;;6.30;99.90;;;;;;4992090;28;20186;-84
2023/01/02 02:38:08;;;;;;;8.00;4.27;;;6.30;99.90;;;;;;4996360;28;20607;-84
2023/01/02 02:41:00;;;;;;;6.13;3.33;;;6.30;99.90;;;;;;4995819;28;20166;-84
2023/01/02 02:43:38;;;;;;;6.67;3.07;;;6.20;99.90;;;;;;4954805;28;20222;-84
2023/01/02 02:46:31;;;;;;;7.33;4.10;;;6.20;99.90;;;;;;4995774;28;20162;-84
2023/01/02 02:49:18;;;;;;;7.43;4.40;;;6.20;99.90;;;;;;4995995;28;20177;-84
2023/01/02 02:51:46;;;;;;;8.40;3.63;;;6.30;99.90;;;;;;4978759;28;20185;-84
2023/01/02 02:54:31;;;;;;;7.93;4.13;;;6.30;99.90;;;;;;4978342;28;20239;-84
2023/01/02 02:56:59;;;;;;;8.83;4.00;;;6.40;99.90;;;;;;4995908;28;20158;-84
2023/01/02 02:59:25;;;;;;;6.13;3.47;;;6.50;99.90;;;;;;4977805;28;20210;-84
2023/01/02 03:01:51;;;;;;;8.77;3.57;;;6.50;99.90;;;;;;4962249;28;20297;-84
2023/01/02 03:04:19;;;;;;;7.57;3.43;;;6.60;99.90;;;;;;4979900;28;20260;-84
2023/01/02 03:07:12;;;;;;;6.43;2.73;;;6.60;99.90;;;;;;4979692;28;20534;-84
2023/01/02 03:10:03;;;;;;;5.97;3.30;;;6.70;99.90;;;;;;5005674;28;20192;-85
2023/01/02 03:12:48;;;;;;;9.73;3.87;;;6.70;99.90;;;;;;5022343;28;20187;-85
2023/01/02 03:15:20;;;;;;;10.20;4.03;;;6.80;99.90;;;;;;5021000;28;20170;-85
2023/01/02 03:17:55;;;;;;;5.27;4.00;;;6.90;99.90;;;;;;5034741;28;20192;-85
2023/01/02 03:20:26;;;;;;;4.13;2.30;;;6.90;99.90;;;;;;5038239;28;20172;-86
2023/01/02 03:23:00;;;;;;;6.03;2.87;;;7.00;99.90;;;;;;5028427;28;20288;-85
2023/01/02 03:25:26;;;;;;;3.23;2.23;;;7.00;99.90;;;;;;5017134;28;20173;-84
2023/01/02 03:27:55;;;;;;;4.10;2.37;;;7.10;99.90;;;;;;5014706;28;20193;-84
2023/01/02 03:30:22;;;;;;;6.27;4.03;;;7.10;99.90;;;;;;5037420;28;20166;-86
2023/01/02 03:32:59;;;;;;;10.83;4.70;;;7.20;99.90;;;;;;5018133;28;20179;-84
2023/01/02 03:35:31;;;;;;;6.27;2.77;;;7.20;99.90;;;;;;5007696;28;20228;-86
2023/01/02 03:38:01;;;;;;;6.60;2.83;;;7.20;99.90;;;;;;5009853;28;20181;-84
2023/01/02 03:40:39;;;;;;;5.43;3.73;;;7.20;99.90;;;;;;4977808;28;20170;-84
2023/01/02 03:43:15;;;;;;;5.60;3.30;;;7.30;99.90;;;;;;4995158;28;20223;-84
2023/01/02 03:45:55;;;;;;;5.80;3.60;;;7.30;99.90;;;;;;4995872;28;20185;-84
2023/01/02 03:48:53;;;;;;;7.40;3.40;;;7.30;99.90;;;;;;5013773;28;20161;-85
2023/01/02 03:51:18;;;;;;;5.20;3.20;;;7.30;99.90;;;;;;5006589;28;20186;-84
2023/01/02 03:53:45;;;;;;;5.43;3.60;;;7.30;99.90;;;;;;4991072;28;20201;-84
2023/01/02 03:56:24;;;;;;;9.10;3.70;;;7.30;99.90;;;;;;5004027;28;20178;-84
2023/01/02 03:58:58;;;;;;;7.67;3.90;;;7.30;99.90;;;;;;5006238;28;20244;-84
2023/01/02 04:01:32;;;;;;;5.07;2.97;;;7.20;99.90;;;;;;4990491;28;20176;-83
2023/01/02 04:04:29;;;;;;;6.80;3.70;;;7.20;99.90;;;;;;4973509;28;1131971;-83
2023/01/02 04:07:00;;;;;;;6.67;4.33;;;7.20;99.90;;;;;;5004203;28;20174;-84
2023/01/02 04:09:29;;;;;;;7.70;3.90;;;7.20;99.90;;;;;;4996406;28;20186;-84
2023/01/02 04:12:06;;;;;;;10.70;3.97;;;7.10;99.90;;;;;;5005376;28;20177;-84
2023/01/02 04:14:40;;;;;;;9.20;4.23;;;7.20;99.90;;;;;;5002330;28;20227;-84
2023/01/02 04:17:09;;;;;;;8.03;4.23;;;7.10;99.90;;;;;;5006838;28;20638;-84
2023/01/02 04:19:46;;;;;;;9.90;5.23;;;7.20;99.90;;;;;;4968263;28;20182;-85
2023/01/02 04:22:27;;;;;;;9.73;4.47;;;7.10;99.90;;;;;;4978529;28;20537;-85
2023/01/02 04:25:14;;;;;;;11.80;5.07;;;7.10;99.90;;;;;;4984772;28;20186;-84
2023/01/02 04:28:19;;;;;;;8.87;5.50;;;7.10;99.90;;;;;;4993069;28;20244;-84
2023/01/02 04:30:50;;;;;;;8.93;4.90;;;7.00;99.90;;;;;;4914425;29;20259;-84
2023/01/02 04:33:19;;;;;;;13.13;5.90;;;7.00;99.90;;;;;;4972500;28;20205;-84
2023/01/02 04:35:45;;;;;;;6.97;4.73;;;7.00;99.90;;;;;;5004740;28;20181;-85
2023/01/02 04:38:11;;;;;;;8.67;4.83;;;6.90;99.90;;;;;;4985323;28;20206;-84
2023/01/02 04:40:37;;;;;;;8.97;4.50;;;6.90;99.90;;;;;;4986736;28;20184;-84
2023/01/02 04:43:23;;;;;;;6.60;4.23;;;7.00;99.90;;;;;;5004916;28;20205;-84
2023/01/02 04:45:49;;;;;;;6.27;3.67;;;6.90;99.90;;;;;;4999282;28;20223;-85
2023/01/02 04:48:16;;;;;;;9.17;4.10;;;6.80;99.90;;;;;;5006793;28;20182;-84
2023/01/02 04:50:42;;;;;;;5.90;3.27;;;6.80;99.90;;;;;;4986526;28;20176;-84
2023/01/02 04:53:09;;;;;;;7.73;4.20;;;6.70;99.90;;;;;;5003708;28;20263;-85
2023/01/02 04:55:36;;;;;;;7.30;4.33;;;6.70;99.90;;;;;;5002088;28;20192;-85
2023/01/02 04:58:02;;;;;;;7.60;5.17;;;6.60;99.90;;;;;;4983900;28;20193;-84
2023/01/02 05:00:27;;;;;;;9.13;5.10;;;6.60;99.90;;;;;;5007712;28;20268;-84
2023/01/02 05:02:53;;;;;;;13.77;5.43;;;6.50;99.90;;;;;;4998651;28;20674;-84
2023/01/02 05:05:20;;;;;;;12.40;5.97;;;6.40;99.90;;;;;;4984810;28;20648;-84
2023/01/02 05:07:45;;;;;;;6.07;3.60;;;6.40;99.90;;;;;;4986334;28;20191;-84
2023/01/02 05:10:11;;;;;;;5.17;3.60;;;6.40;99.90;;;;;;4975764;28;20183;-84
2023/01/02 05:12:38;;;;;;;6.67;4.77;;;6.40;99.90;;;;;;4972008;28;20711;-84
2023/01/02 05:15:05;;;;;;;4.03;3.23;;;6.40;99.90;;;;;;4993318;28;20189;-84
2023/01/02 05:17:35;;;;;;;11.93;5.20;;;6.40;99.90;;;;;;4997327;28;20268;-84
2023/01/02 05:20:01;;;;;;;7.43;4.13;;;6.30;99.90;;;;;;4996462;28;20184;-84
2023/01/02 05:25:11;;;;;;;3.93;3.53;;;6.30;99.90;;;;;;4997222;28;20695;-84
2023/01/02 05:27:37;;;;;;;8.23;3.57;;;6.30;99.90;;;;;;4979664;28;20178;-85
2023/01/02 05:30:03;;;;;;;7.23;3.83;;;6.40;99.90;;;;;;4996084;28;20189;-84
2023/01/02 05:32:29;;;;;;;12.07;5.90;;;6.30;99.90;;;;;;4987015;28;20208;-85
2023/01/02 05:34:54;;;;;;;10.57;5.50;;;6.30;99.90;;;;;;4974977;28;20288;-83
2023/01/02 05:37:20;;;;;;;15.27;6.63;;;6.30;99.90;;;;;;4988274;28;20186;-83
2023/01/02 05:39:46;;;;;;;10.07;5.20;;;6.30;99.90;;;;;;4982913;28;20190;-83
2023/01/02 05:42:11;;;;;;;9.73;5.30;;;6.30;99.90;;;;;;4983790;28;20217;-84
2023/01/02 05:44:37;;;;;;;8.23;4.20;;;6.30;99.90;;;;;;4996464;28;20185;-84
2023/01/02 05:47:02;;;;;;;12.80;5.93;;;6.30;99.90;;;;;;4996079;28;20182;-84
2023/01/02 05:49:28;;;;;;;13.80;6.13;;;6.30;99.90;;;;;;4995088;28;20615;-84
2023/01/02 05:51:54;;;;;;;17.80;7.63;;;6.30;99.90;;;;;;4995286;28;20646;-84
2023/01/02 05:54:19;;;;;;;23.17;8.73;;;6.30;99.90;;;;;;4991643;28;20632;-84
2023/01/02 05:56:45;;;;;;;21.33;9.60;;;6.30;99.90;;;;;;4975646;28;20178;-84
2023/01/02 05:59:13;;;;;;;12.83;7.07;;;6.30;99.90;;;;;;4976769;28;20626;-84
2023/01/02 06:01:39;;;;;;;25.33;8.80;;;6.20;99.90;;;;;;4976577;28;20264;-84
2023/01/02 06:04:04;;;;;;;25.07;9.77;;;6.10;99.90;;;;;;4976290;28;20277;-84
2023/01/02 06:06:39;;;;;;;13.83;6.60;;;6.10;99.90;;;;;;4995513;28;20185;-84
2023/01/02 06:09:06;;;;;;;15.13;5.77;;;6.10;99.90;;;;;;4979368;28;20185;-85
2023/01/02 06:11:33;;;;;;;9.63;6.77;;;6.20;99.90;;;;;;4995609;28;20190;-84
2023/01/02 06:13:59;;;;;;;10.67;6.10;;;6.20;99.90;;;;;;4996179;28;20579;-85
2023/01/02 06:16:25;;;;;;;13.03;6.83;;;6.30;99.90;;;;;;4996896;28;20264;-85
2023/01/02 06:18:51;;;;;;;14.93;6.80;;;6.40;99.90;;;;;;4978909;28;20178;-85
2023/01/02 06:21:19;;;;;;;10.97;5.53;;;6.50;99.90;;;;;;4996360;28;20642;-85
2023/01/02 06:23:47;;;;;;;8.67;4.37;;;6.60;99.90;;;;;;4995784;28;20178;-86
2023/01/02 06:26:17;;;;;;;8.03;3.80;;;6.60;99.90;;;;;;4995093;28;20182;-85
2023/01/02 06:28:44;;;;;;;13.83;5.60;;;6.70;99.90;;;;;;4996332;28;20253;-88
2023/01/02 06:31:12;;;;;;;11.13;5.40;;;6.70;99.90;;;;;;5000987;28;20204;-85
2023/01/02 06:33:38;;;;;;;5.27;3.37;;;6.70;99.90;;;;;;4993104;28;20186;-85
2023/01/02 06:36:09;;;;;;;7.47;4.23;;;6.70;99.90;;;;;;5006476;28;20604;-85
2023/01/02 06:38:36;;;;;;;7.97;4.63;;;6.70;99.90;;;;;;5006074;28;20169;-85
2023/01/02 06:41:02;;;;;;;8.03;4.47;;;6.70;99.90;;;;;;5003864;28;20205;-85
2023/01/02 06:43:29;;;;;;;7.57;4.90;;;6.70;99.90;;;;;;5005856;28;20227;-86
2023/01/02 06:46:00;;;;;;;15.43;5.17;;;6.70;99.90;;;;;;4991971;28;20185;-85
2023/01/02 06:48:27;;;;;;;6.20;4.30;;;6.80;99.90;;;;;;5002379;28;20240;-85
2023/01/02 06:50:53;;;;;;;10.43;5.33;;;6.70;99.90;;;;;;5006337;28;20258;-86
2023/01/02 06:53:19;;;;;;;10.77;5.30;;;6.70;99.90;;;;;;4971885;28;20182;-85
2023/01/02 06:55:57;;;;;;;10.67;5.80;;;6.60;99.90;;;;;;5000374;28;20180;-85
2023/01/02 06:58:25;;;;;;;12.37;5.87;;;6.70;99.90;;;;;;5005832;28;20235;-85
2023/01/02 07:00:51;;;;;;;21.33;6.83;;;6.60;99.90;;;;;;5007253;28;20643;-87
2023/01/02 07:03:17;;;;;;;26.10;8.73;;;6.60;99.90;;;;;;5002714;28;20206;-87
2023/01/02 07:05:43;;;;;;;18.93;8.50;;;6.70;99.90;;;;;;4994329;28;20236;-84
2023/01/02 07:08:13;;;;;;;36.10;13.03;;;6.60;99.90;;;;;;4981661;28;20546;-85
2023/01/02 07:10:38;;;;;;;42.23;12.53;;;6.60;99.90;;;;;;4969707;28;20632;-85
2023/01/02 07:13:04;;;;;;;33.40;13.07;;;6.60;99.90;;;;;;4985754;28;20192;-85
2023/01/02 07:15:31;;;;;;;24.47;10.00;;;6.60;99.90;;;;;;5002963;28;20194;-85
2023/01/02 07:17:57;;;;;;;23.43;10.00;;;6.70;99.90;;;;;;4956319;28;20543;-85
2023/01/02 07:20:22;;;;;;;20.50;10.13;;;6.70;99.90;;;;;;5000655;28;20180;-84
2023/01/02 07:22:52;;;;;;;27.90;10.53;;;6.70;99.90;;;;;;5003041;28;20220;-85
2023/01/02 07:25:19;;;;;;;21.60;8.63;;;6.70;99.90;;;;;;4999852;28;20183;-85
2023/01/02 07:27:44;;;;;;;12.83;6.43;;;6.70;99.90;;;;;;4976849;28;20331;-86
2023/01/02 07:30:11;;;;;;;10.43;6.47;;;6.60;99.90;;;;;;4980172;28;20224;-84
2023/01/02 07:32:36;;;;;;;13.33;5.73;;;6.70;99.90;;;;;;5012644;28;20193;-85
2023/01/02 07:35:02;;;;;;;11.47;6.20;;;6.70;99.90;;;;;;5010533;28;20697;-84
2023/01/02 07:37:28;;;;;;;8.87;5.70;;;6.80;99.90;;;;;;5002977;28;20657;-85
2023/01/02 07:39:53;;;;;;;14.67;6.60;;;6.80;99.90;;;;;;4979983;28;20634;-86
2023/01/02 07:42:19;;;;;;;9.13;4.83;;;6.90;99.90;;;;;;4990884;28;20232;-84
2023/01/02 07:44:45;;;;;;;9.40;4.17;;;7.00;99.90;;;;;;4995599;28;20185;-84
2023/01/02 07:47:10;;;;;;;9.80;3.53;;;7.10;99.90;;;;;;4971748;28;20190;-85
2023/01/02 07:49:36;;;;;;;11.93;6.47;;;7.20;99.90;;;;;;5004383;28;20182;-84
2023/01/02 07:52:02;;;;;;;12.00;6.13;;;7.30;99.90;;;;;;4985346;28;20678;-84
2023/01/02 07:54:27;;;;;;;11.13;5.20;;;7.40;99.90;;;;;;4993102;28;20642;-85
2023/01/02 07:56:53;;;;;;;11.87;6.37;;;7.50;99.90;;;;;;4992395;28;20185;-85
2023/01/02 07:59:19;;;;;;;9.07;4.83;;;7.50;99.90;;;;;;4983130;28;20190;-84
2023/01/02 08:01:44;;;;;;;6.93;4.30;;;7.60;99.90;;;;;;4982580;28;20206;-84
2023/01/02 08:04:10;;;;;;;6.57;4.90;;;7.70;99.90;;;;;;4959566;28;20575;-85
2023/01/02 08:06:39;;;;;;;12.37;6.20;;;7.80;99.90;;;;;;4967163;28;20648;-85
2023/01/02 08:09:05;;;;;;;15.83;6.90;;;7.90;99.90;;;;;;5003817;28;20201;-84
2023/01/02 08:11:30;;;;;;;14.60;7.13;;;8.00;99.90;;;;;;4983252;28;20227;-84
2023/01/02 08:13:56;;;;;;;12.63;4.93;;;8.10;99.90;;;;;;4988731;28;20587;-84
2023/01/02 08:16:22;;;;;;;10.30;6.20;;;8.10;99.90;;;;;;5005359;28;20547;-84
2023/01/02 08:18:54;;;;;;;10.60;6.47;;;8.20;99.90;;;;;;5003846;28;20181;-83
2023/01/02 08:21:23;;;;;;;16.37;5.20;;;8.30;99.90;;;;;;5001608;28;20259;-84
2023/01/02 08:23:50;;;;;;;8.27;4.70;;;8.30;99.90;;;;;;4992364;28;20209;-83
2023/01/02 08:26:16;;;;;;;8.87;5.80;;;8.30;99.90;;;;;;4997757;28;20213;-82
2023/01/02 08:28:42;;;;;;;12.07;4.73;;;8.40;99.90;;;;;;5000909;28;20176;-83
2023/01/02 08:31:15;;;;;;;8.60;5.10;;;8.50;99.90;;;;;;4993151;28;20186;-83
2023/01/02 08:33:41;;;;;;;4.93;3.50;;;8.60;99.90;;;;;;4994488;28;20221;-84
2023/01/02 08:36:08;;;;;;;12.10;6.63;;;8.70;99.90;;;;;;4961594;28;20182;-84
2023/01/02 08:38:34;;;;;;;7.83;5.20;;;8.70;99.90;;;;;;5000528;28;20205;-84
2023/01/02 08:41:00;;;;;;;10.40;5.57;;;8.80;99.90;;;;;;4993404;28;20217;-84
2023/01/02 08:43:26;;;;;;;14.20;6.17;;;8.80;99.90;;;;;;5002247;28;20225;-84
2023/01/02 08:45:53;;;;;;;12.53;6.17;;;8.90;99.90;;;;;;4984160;28;20533;-84
2023/01/02 08:48:19;;;;;;;9.57;6.07;;;9.00;99.90;;;;;;5004346;28;20180;-84
2023/01/02 08:50:45;;;;;;;11.67;5.40;;;9.10;99.90;;;;;;4997218;28;20185;-83
2023/01/02 08:53:11;;;;;;;8.93;4.53;;;9.10;99.90;;;;;;5000952;28;20665;-84
2023/01/02 08:55:36;;;;;;;10.40;5.97;;;9.20;99.90;;;;;;4974707;28;20193;-86
2023/01/02 08:58:02;;;;;;;10.10;5.07;;;9.30;99.90;;;;;;4983733;28;20319;-86
2023/01/02 09:00:27;;;;;;;7.57;4.75;;;9.40;99.90;;;;;;4969967;28;20243;-84
2023/01/02 09:02:53;;;;;;;9.53;5.43;;;9.50;99.90;;;;;;4965355;28;20224;-84
2023/01/02 09:05:19;;;;;;;9.85;4.70;;;9.60;99.90;;;;;;4980699;28;20229;-84
2023/01/02 09:07:44;;;;;;;11.23;6.43;;;9.60;99.90;;;;;;4963589;28;20580;-85
2023/01/02 09:10:10;;;;;;;8.98;5.53;;;9.70;99.90;;;;;;4963313;28;20543;-84
2023/01/02 09:12:36;;;;;;;13.27;6.77;;;9.80;99.90;;;;;;4967605;28;20193;-84
2023/01/02 09:15:03;;;;;;;7.97;4.57;;;9.90;99.90;;;;;;5013456;28;20236;-86
2023/01/02 09:17:29;;;;;;;6.63;4.13;;;9.90;99.90;;;;;;5030236;28;20162;-85
2023/01/02 09:19:55;;;;;;;15.27;6.97;;;10.00;99.90;;;;;;5019257;28;20169;-85
2023/01/02 09:22:20;;;;;;;11.57;4.75;;;10.00;99.90;;;;;;5023073;28;20205;-85
2023/01/02 09:24:46;;;;;;;7.07;4.72;;;10.10;99.90;;;;;;5005743;28;20193;-84
2023/01/02 09:27:12;;;;;;;9.25;4.32;;;10.20;99.90;;;;;;5004935;28;20258;-90
2023/01/02 09:29:37;;;;;;;12.77;5.25;;;10.30;99.90;;;;;;5013265;28;20248;-85
2023/01/02 09:32:03;;;;;;;6.32;4.32;;;10.40;99.90;;;;;;5008716;28;20155;-88
2023/01/02 09:34:29;;;;;;;8.73;4.97;;;10.50;99.90;;;;;;5020710;28;20178;-85
2023/01/02 09:36:54;;;;;;;11.32;6.53;;;10.50;99.90;;;;;;4995312;28;20201;-84
2023/01/02 09:39:20;;;;;;;5.72;4.05;;;10.60;99.90;;;;;;5002303;28;20186;-84
2023/01/02 09:41:50;;;;;;;8.73;4.47;;;10.60;99.90;;;;;;4971185;28;20237;-83
2023/01/02 09:44:27;;;;;;;9.68;5.68;;;10.60;99.90;;;;;;5004949;28;20157;-84
2023/01/02 09:47:02;;;;;;;11.32;5.28;;;10.60;99.90;;;;;;4996954;28;20212;-85
2023/01/02 09:49:32;;;;;;;9.43;5.63;;;10.60;99.90;;;;;;4987711;28;20188;-85
2023/01/02 09:51:59;;;;;;;11.32;3.95;;;10.60;99.90;;;;;;4988153;28;20188;-85
2023/01/02 09:54:30;;;;;;;4.45;3.40;;;10.60;99.90;;;;;;4983944;28;20193;-84
2023/01/02 09:57:01;;;;;;;6.85;3.53;;;10.60;99.90;;;;;;5001162;28;20182;-84
2023/01/02 09:59:32;;;;;;;7.53;5.53;;;10.70;99.90;;;;;;5004585;28;20205;-84
2023/01/02 10:02:15;;;;;;;6.95;3.70;;;10.70;99.90;;;;;;4993739;28;20231;-84
2023/01/02 10:04:55;;;;;;;8.65;4.57;;;10.70;99.90;;;;;;5004147;28;20221;-85
2023/01/02 10:07:38;;;;;;;13.27;5.28;;;10.80;99.90;;;;;;5007788;28;20219;-85
2023/01/02 10:10:30;;;;;;;12.38;4.43;;;10.80;99.90;;;;;;4996499;28;20653;-84
2023/01/02 10:13:30;;;;;;;8.70;4.65;;;10.80;99.90;;;;;;5006330;28;20196;-84
2023/01/02 10:15:59;;;;;;;5.53;3.55;;;10.80;99.90;;;;;;4986594;28;20177;-83
2023/01/02 10:18:39;;;;;;;13.35;4.75;;;10.90;99.90;;;;;;5004369;28;20170;-83
2023/01/02 10:21:10;;;;;;;6.32;4.47;;;10.90;99.90;;;;;;5004692;28;20169;-84
2023/01/02 10:23:40;;;;;;;9.30;5.15;;;10.90;99.90;;;;;;4992764;28;20198;-84
2023/01/02 10:26:15;;;;;;;8.98;4.22;;;10.90;99.90;;;;;;5005309;28;20252;-84
2023/01/02 10:28:49;;;;;;;7.25;3.72;;;10.90;99.90;;;;;;5001109;28;20184;-84
2023/01/02 10:32:07;;;;;;;6.50;4.75;;;11.00;99.90;;;;;;5003747;28;20181;-84
2023/01/02 10:35:03;;;;;;;10.45;5.03;;;11.00;99.90;;;;;;4921444;29;20220;-84
2023/01/02 10:37:30;;;;;;;4.78;3.45;;;11.10;99.90;;;;;;5004303;28;20194;-83
2023/01/02 10:39:56;;;;;;;8.32;4.63;;;11.10;99.90;;;;;;5001463;28;20337;-83
2023/01/02 10:42:22;;;;;;;5.40;3.50;;;11.20;99.90;;;;;;4995597;28;20224;-83
2023/01/02 10:44:48;;;;;;;9.07;4.32;;;11.20;99.90;;;;;;4978322;28;20190;-83
2023/01/02 10:47:34;;;;;;;10.68;4.90;;;11.30;99.90;;;;;;4978951;28;20541;-83
2023/01/02 10:50:03;;;;;;;11.73;5.50;;;11.40;99.90;;;;;;4996619;28;20209;-83
2023/01/02 10:52:33;;;;;;;7.63;3.33;;;11.40;99.90;;;;;;4996207;28;20264;-83
2023/01/02 10:55:00;;;;;;;7.78;4.22;;;11.40;99.90;;;;;;4996652;28;20162;-83
2023/01/02 10:57:35;;;;;;;13.88;5.38;;;11.50;99.90;;;;;;4994877;28;20178;-84
2023/01/02 11:00:03;;;;;;;8.02;4.75;;;11.40;99.90;;;;;;5011883;28;20642;-84
2023/01/02 11:02:37;;;;;;;8.48;4.78;;;11.50;99.90;;;;;;5015134;28;20595;-84
2023/01/02 11:05:06;;;;;;;6.82;3.80;;;11.50;99.90;;;;;;5015974;28;20219;-83
2023/01/02 11:07:38;;;;;;;7.57;4.88;;;11.60;99.90;;;;;;5015192;28;20705;-84
2023/01/02 11:10:23;;;;;;;7.50;4.18;;;11.70;99.90;;;;;;4985235;28;20281;-84
2023/01/02 11:12:49;;;;;;;6.95;3.58;;;11.80;99.90;;;;;;4995753;28;20221;-84
2023/01/02 11:15:29;;;;;;;9.88;4.40;;;11.90;99.90;;;;;;4995735;28;20178;-84
2023/01/02 11:17:56;;;;;;;7.60;4.07;;;11.90;99.90;;;;;;4995352;28;20681;-84
2023/01/02 11:20:35;;;;;;;8.13;4.25;;;11.90;99.90;;;;;;4978053;28;20174;-84
2023/01/02 11:23:03;;;;;;;9.35;4.70;;;11.90;99.90;;;;;;4995108;28;20194;-84
2023/01/02 11:25:37;;;;;;;6.70;3.88;;;11.90;99.90;;;;;;4995144;28;20192;-84
2023/01/02 11:28:03;;;;;;;9.98;5.28;;;12.00;99.90;;;;;;4995391;28;20166;-84
2023/01/02 11:30:45;;;;;;;16.50;5.60;;;11.90;99.90;;;;;;4977569;28;20186;-84
2023/01/02 11:33:20;;;;;;;6.18;3.58;;;11.90;99.90;;;;;;4977591;28;20182;-84
2023/01/02 11:35:47;;;;;;;4.57;3.28;;;11.80;99.90;;;;;;4994888;28;20762;-84
2023/01/02 11:38:38;;;;;;;9.50;4.68;;;11.70;99.90;;;;;;4994546;28;20585;-84
2023/01/02 11:41:04;;;;;;;9.02;5.57;;;11.70;99.90;;;;;;5014573;28;20188;-83
2023/01/02 11:43:50;;;;;;;12.98;5.22;;;11.70;99.90;;;;;;4996558;28;20315;-85
2023/01/02 11:46:35;;;;;;;5.05;3.42;;;11.70;99.90;;;;;;5014610;28;20231;-84
2023/01/02 11:49:12;;;;;;;9.70;5.40;;;11.70;99.90;;;;;;5014022;28;20173;-84
2023/01/02 11:51:39;;;;;;;11.30;5.20;;;11.70;99.90;;;;;;5014064;28;20180;-84
2023/01/02 11:54:40;;;;;;;8.68;5.57;;;11.70;99.90;;;;;;5014128;28;20185;-84
2023/01/02 11:57:40;;;;;;;9.07;4.40;;;11.70;99.90;;;;;;4996882;28;20185;-84
2023/01/02 12:00:12;;;;;;;8.73;4.47;;;11.60;99.90;;;;;;4972081;28;20189;-84
2023/01/02 12:02:50;;;;;;;9.13;5.22;;;11.60;99.90;;;;;;5013563;28;20215;-83
2023/01/02 12:05:33;;;;;;;9.85;5.13;;;11.60;99.90;;;;;;5013968;28;20359;-84
2023/01/02 12:08:18;;;;;;;9.35;5.25;;;11.70;99.90;;;;;;5014449;28;20173;-84
2023/01/02 12:11:08;;;;;;;8.50;4.85;;;11.80;99.90;;;;;;5013407;28;20188;-85
2023/01/02 12:14:05;;;;;;;12.35;3.90;;;11.90;99.90;;;;;;4996378;28;20181;-85
2023/01/02 12:16:34;;;;;;;9.10;4.70;;;12.10;99.90;;;;;;5013552;28;20597;-86
2023/01/02 12:19:31;;;;;;;7.05;4.07;;;12.10;99.90;;;;;;5013913;28;20174;-84
2023/01/02 12:22:15;;;;;;;4.90;3.40;;;12.20;99.90;;;;;;5013711;28;20239;-84
2023/01/02 12:24:50;;;;;;;8.25;4.65;;;12.30;99.90;;;;;;4996052;28;20177;-85
2023/01/02 12:27:31;;;;;;;7.18;4.15;;;12.30;99.90;;;;;;5013877;28;20252;-85
2023/01/02 12:30:18;;;;;;;7.97;4.13;;;12.20;99.90;;;;;;4994047;28;20177;-85
2023/01/02 12:32:49;;;;;;;8.48;3.92;;;12.20;99.90;;;;;;4999624;28;20188;-85
2023/01/02 12:35:51;;;;;;;7.00;3.60;;;12.20;99.90;;;;;;4984858;28;20276;-85
2023/01/02 12:38:34;;;;;;;6.30;3.38;;;12.30;99.90;;;;;;4910211;29;20191;-85
2023/01/02 12:41:09;;;;;;;14.43;5.40;;;12.40;99.90;;;;;;4982682;28;20530;-84
2023/01/02 12:43:40;;;;;;;5.90;4.28;;;12.40;99.90;;;;;;4995022;28;20688;-84
2023/01/02 12:46:44;;;;;;;6.78;4.07;;;12.40;99.90;;;;;;4994964;28;20181;-84
2023/01/02 12:49:46;;;;;;;13.15;4.20;;;12.40;99.90;;;;;;4994910;28;20192;-84
2023/01/02 12:52:36;;;;;;;11.82;6.50;;;12.50;99.90;;;;;;5012626;28;20161;-84
2023/01/02 12:55:26;;;;;;;14.70;6.20;;;12.70;99.90;;;;;;5012733;28;20197;-84
2023/01/02 12:57:51;;;;;;;6.93;3.33;;;12.80;99.90;;;;;;5009388;28;20216;-85
2023/01/02 13:00:46;;;;;;;10.77;5.47;;;12.80;99.90;;;;;;4995765;28;20184;-84
2023/01/02 13:03:52;;;;;;;14.50;6.80;;;12.70;99.90;;;;;;4993884;28;20677;-85
2023/01/02 13:06:26;;;;;;;16.75;6.10;;;12.60;99.90;;;;;;5007386;28;20256;-84
2023/01/02 13:09:12;;;;;;;11.88;6.10;;;12.60;99.90;;;;;;5001814;28;20186;-83
2023/01/02 13:11:52;;;;;;;14.23;6.68;;;12.50;99.90;;;;;;4997994;28;20670;-86
2023/01/02 13:14:26;;;;;;;18.10;7.25;;;12.50;99.90;;;;;;5010104;28;20665;-86
2023/01/02 13:17:07;;;;;;;10.60;5.25;;;12.40;99.90;;;;;;5013074;28;20591;-84